グアルーリョス国際空港 (サンパウロ)の過去48時間の天気

グアルーリョス国際空港 (サンパウロ) (Guarulhos Civ / Mil )

現在時刻: 2/21 14:38 -03 (2/21 17:38 UTC) 以下の時間は現地時間です。

過去48時間のMETAR気象情報
時間 風向 風速(m/s) 視程 気温(℃) 湿度(%) 気圧(hPa) 天気現象
21 14:00 6 10km以上 23 94 1018 弱い雷雨
21 13:00 北西 3 10km以上 29 62 1018
21 12:00 東北東 3 10km以上 26 74 1018
21 11:15 東北東 3 8000m 25 74 1019
21 11:00 北東 3 10km以上 26 74 1019
21 10:00 東北東 2 10km以上 25 78 1019
21 09:00 東北東 2 10km以上 24 83 1018
21 08:00 東北東 2 10km以上 21 100 1018
21 07:00 北東 2 7000m 21 100 1017
21 06:32 北東 3 5000m 20 100 1017 弱い雨
21 06:00 東北東 2 4000m 20 100 1016 弱い雨
21 05:00 静穏 0 10km以上 21 100 1016
21 04:00 静穏 0 10km以上 20 100 1016
21 03:00 静穏 0 10km以上 20 100 1016
21 02:00 静穏 0 10km以上 21 100 1016
21 01:00 静穏 0 10km以上 21 100 1017 弱い雨
21 00:00 1 10km以上 21 94 1017 弱い雨
20 23:00 静穏 0 10km以上 20 100 1017
20 22:00 2 10km以上 21 88 1017
20 21:00 3 10km以上 21 94 1017
20 20:00 東北東 3 10km以上 23 89 1015
20 19:00 東北東 4 10km以上 23 83 1014
20 18:00 東北東 5 10km以上 24 78 1013
20 17:00 東北東 6 10km以上 25 78 1013
20 16:00 西 3 10km以上 27 70 1013
20 15:00 西北西 4 10km以上 28 66 - 弱い雨
20 14:00 西 5 10km以上 28 62 1014
20 13:00 西 5 10km以上 29 58 1014
20 12:00 西 4 10km以上 29 58 1015
20 11:00 北西 5 10km以上 29 58 1015
20 10:00 西北西 5 10km以上 28 62 1016
20 09:00 西北西 3 10km以上 27 66 1016
20 08:00 北西 2 10km以上 24 74 1016
20 07:00 北北西 2 10km以上 22 78 1015
20 06:00 2 10km以上 22 78 1014
20 05:00 北西 3 10km以上 22 83 1014
20 04:00 4 10km以上 22 88 1014
20 03:00 静穏 0 10km以上 20 100 1014
20 02:00 静穏 0 10km以上 21 94 1015
20 01:00 東南東 1 10km以上 22 88 1015
20 00:00 静穏 0 10km以上 21 94 1015
19 23:00 北西 2 10km以上 24 74 1015
19 22:00 静穏 0 10km以上 23 83 1015
19 21:00 静穏 0 10km以上 24 78 1014
19 20:00 北西 2 10km以上 25 74 1014
19 19:00 西北西 1 10km以上 26 65 1013
19 18:00 西北西 4 10km以上 29 55 1012
19 17:00 西 5 10km以上 30 52 1012
19 16:00 北西 6 10km以上 31 49 1012
19 15:00 北北西 5 10km以上 31 52 1012
SBGR 211700Z 35012KT 9999 2500E -TSRA BKN025 FEW040CB 23/22 Q1018
SBGR 211600Z 32005KT 9999 BKN035 29/21 Q1018
SBGR 211500Z 07005KT 9999 FEW025 BKN040 26/21 Q1018 RERA
SBGR 211415Z 07005KT 8000 2500E RA BKN015 25/20 Q1019
SBGR 211400Z 04005KT 9999 BKN030 26/21 Q1019
SBGR 211300Z 06004KT CAVOK 25/21 Q1019
SBGR 211200Z 07004KT 9999 SCT009 24/21 Q1018
SBGR 211100Z 07003KT 9999 SCT005 SCT085 21/21 Q1018
SBGR 211000Z 05004KT 7000 BKN005 BKN085 21/21 Q1017
SBGR 210932Z 05005KT 5000 -RA BKN005 BKN068 20/20 Q1017
SBGR 210900Z 06004KT 4000 -RA SCT040 BKN100 20/20 Q1016
SBGR 210800Z 00000KT 9999 SCT008 BKN068 21/21 Q1016
SBGR 210700Z 00000KT 9999 SCT011 BKN085 20/20 Q1016
SBGR 210600Z 00000KT 9999 BKN030 BKN080 20/20 Q1016
SBGR 210500Z 00000KT 9999 SCT006 SCT040 BKN068 21/21 Q1016
SBGR 210400Z 00000KT 9999 -RA SCT043 BKN085 21/21 Q1017
SBGR 210300Z 01001KT 9999 -RA SCT020 BKN080 21/20 Q1017
SBGR 210200Z 00000KT 9999 FEW020 SCT080 20/20 Q1017
SBGR 210100Z 17003KT 9999 SCT033 BKN080 21/19 Q1017
SBGR 210000Z 19006KT 9999 BKN017 BKN100 21/20 Q1017
SBGR 202300Z 06006KT 9999 SCT023 23/21 Q1015
SBGR 202200Z 06008KT 9999 SCT025 BKN100 23/20 Q1014
SBGR 202100Z 06010KT 9999 SCT025 24/20 Q1013
SBGR 202000Z 07012KT 9999 SCT023 BKN080 25/21 Q1013
SBGR 201900Z 28006KT 9999 FEW040 BKN100 27/21 Q1013
SBGR 201800Z 30008KT 9999 -RA FEW040 FEW045TCU BKN090 28/21 Q10 13
SBGR 201700Z 27010KT 9999 BKN040 FEW045TCU BKN070 28/20 Q1014
SBGR 201600Z 27009KT 9999 BKN040 29/20 Q1014
SBGR 201500Z 28008KT 9999 BKN040 29/20 Q1015
SBGR 201400Z 31010KT 9999 SCT035 29/20 Q1015
SBGR 201300Z 30010KT 9999 FEW030 28/20 Q1016
SBGR 201200Z 29005KT CAVOK 27/20 Q1016
SBGR 201100Z 32004KT 280V030 CAVOK 24/19 Q1016
SBGR 201000Z 34004KT 260V040 CAVOK 22/18 Q1015
SBGR 200900Z 35004KT CAVOK 22/18 Q1014
SBGR 200800Z 31006KT 260V340 CAVOK 22/19 Q1014
SBGR 200700Z 36007KT CAVOK 22/20 Q1014
SBGR 200600Z 00000KT CAVOK 20/20 Q1014
SBGR 200500Z 00000KT CAVOK 21/20 Q1015
SBGR 200400Z 12001KT 9999 FEW040 SCT070 22/20 Q1015
SBGR 200300Z 00000KT 9999 SCT046 21/20 Q1015
SBGR 200200Z 31004KT 9999 SCT046 24/19 Q1015
SBGR 200100Z 00000KT 9999 BKN046 SCT090 23/20 Q1015
SBGR 200000Z 00000KT CAVOK 24/20 Q1014
SBGR 192300Z 31004KT CAVOK 25/20 Q1014
SBGR 192200Z 30002KT CAVOK 26/19 Q1013
SBGR 192100Z 30008KT CAVOK 29/19 Q1012
SBGR 192000Z 28009KT CAVOK 30/19 Q1012
SBGR 191900Z 32011KT CAVOK 31/19 Q1012
SBGR 191800Z 33009KT CAVOK 31/20 Q1012